Time;durP1;ratioP1;P1;durP2;ratioP2;P2;SDS_P1;SDS_P2;PMS_P1;PMS_P2;Temp;Humidity;BMP_temperature;BMP_pressure;BME280_temperature;BME280_humidity;BME280_pressure;Samples;Min_cycle;Max_cycle;Signal;HPM_P1;HPM_P2
2023/07/16 00:02:00;;;;;;;6.70;4.10;;;17.40;99.90;;;;;;4859913;28;90790;-43
2023/07/16 00:04:25;;;;;;;4.03;3.45;;;17.40;99.90;;;;;;4862260;28;90051;-40
2023/07/16 00:06:51;;;;;;;4.20;3.80;;;17.30;99.90;;;;;;4858590;28;89555;-37
2023/07/16 00:09:17;;;;;;;6.20;4.03;;;17.30;99.90;;;;;;4859627;28;90538;-39
2023/07/16 00:11:42;;;;;;;7.20;3.83;;;17.30;99.90;;;;;;4861604;28;89856;-41
2023/07/16 00:14:10;;;;;;;3.40;3.10;;;17.30;99.90;;;;;;4859667;28;88950;-43
2023/07/16 00:16:36;;;;;;;6.78;3.92;;;17.20;99.90;;;;;;4859603;28;88572;-39
2023/07/16 00:19:02;;;;;;;4.22;3.03;;;17.20;99.90;;;;;;4863243;28;89910;-34
2023/07/16 00:21:27;;;;;;;7.18;3.17;;;17.20;99.90;;;;;;4877208;28;89807;-35
2023/07/16 00:23:53;;;;;;;8.05;3.40;;;17.10;99.90;;;;;;4862410;28;89949;-41
2023/07/16 00:26:18;;;;;;;5.55;3.83;;;17.10;99.90;;;;;;4860924;28;89467;-35
2023/07/16 00:28:44;;;;;;;4.40;3.40;;;17.10;99.90;;;;;;4863026;28;90202;-42
2023/07/16 00:31:10;;;;;;;4.60;4.13;;;17.10;99.90;;;;;;4852242;28;89724;-39
2023/07/16 00:33:36;;;;;;;10.25;3.80;;;17.10;99.90;;;;;;4860375;28;89613;-41
2023/07/16 00:36:01;;;;;;;9.50;4.13;;;17.00;99.90;;;;;;4863192;28;89042;-43
2023/07/16 00:38:27;;;;;;;6.82;4.10;;;17.00;99.90;;;;;;4861805;28;90437;-38
2023/07/16 00:40:52;;;;;;;5.25;3.15;;;17.00;99.90;;;;;;4852664;28;89438;-36
2023/07/16 00:43:18;;;;;;;8.15;3.80;;;17.00;99.90;;;;;;4848357;28;90624;-36
2023/07/16 00:45:46;;;;;;;9.20;4.72;;;17.00;99.90;;;;;;4859021;28;88439;-39
2023/07/16 00:48:12;;;;;;;4.60;3.40;;;17.00;99.90;;;;;;4848809;28;89851;-42
2023/07/16 00:50:39;;;;;;;8.45;3.58;;;16.90;99.90;;;;;;4862237;28;90378;-37
2023/07/16 00:53:07;;;;;;;10.40;3.65;;;16.90;99.90;;;;;;4861510;28;90844;-34
2023/07/16 00:55:35;;;;;;;4.67;3.60;;;16.90;99.90;;;;;;4862003;28;89934;-42
2023/07/16 00:58:04;;;;;;;;;;;16.80;99.90;;;;;;4862161;28;89272;-34
2023/07/16 01:00:34;;;;;;;9.15;4.05;;;16.80;99.90;;;;;;4863573;28;89200;-41
2023/07/16 01:03:05;;;;;;;4.05;3.10;;;16.80;99.90;;;;;;4862994;28;89499;-40
2023/07/16 01:05:57;;;;;;;6.15;3.33;;;16.80;99.90;;;;;;4872495;28;89565;-36
2023/07/16 01:08:32;;;;;;;11.00;4.28;;;16.70;99.90;;;;;;4855287;28;90274;-37
2023/07/16 01:10:59;;;;;;;7.57;4.07;;;16.70;99.90;;;;;;4852981;28;89317;-39
2023/07/16 01:13:26;;;;;;;7.40;4.15;;;16.70;99.90;;;;;;4859043;28;90184;-36
2023/07/16 01:15:52;;;;;;;4.05;3.53;;;16.70;99.90;;;;;;4843215;28;90189;-39
2023/07/16 01:18:17;;;;;;;11.63;3.80;;;16.70;99.90;;;;;;4858850;28;89428;-44
2023/07/16 01:20:43;;;;;;;4.43;3.30;;;16.60;99.90;;;;;;4852905;28;89146;-37
2023/07/16 01:23:30;;;;;;;12.48;5.03;;;16.70;99.90;;;;;;4843295;28;89043;-38
2023/07/16 01:26:19;;;;;;;5.03;3.40;;;16.60;99.90;;;;;;4845130;28;89772;-44
2023/07/16 01:28:48;;;;;;;8.73;4.18;;;16.60;99.90;;;;;;4857657;28;90747;-43
2023/07/16 01:31:16;;;;;;;7.53;4.18;;;16.50;99.90;;;;;;4850449;28;89573;-38
2023/07/16 01:33:42;;;;;;;;;;;16.50;99.90;;;;;;4861427;28;89606;-36
2023/07/16 01:36:08;;;;;;;7.93;4.00;;;16.50;99.90;;;;;;4863164;28;88464;-38
2023/07/16 01:38:35;;;;;;;4.72;3.58;;;16.50;99.90;;;;;;4861651;28;90460;-37
2023/07/16 01:41:01;;;;;;;4.13;3.73;;;16.40;99.90;;;;;;4861953;28;91866;-35
2023/07/16 01:43:27;;;;;;;8.55;4.60;;;16.40;99.90;;;;;;4859425;28;90832;-35
2023/07/16 01:45:52;;;;;;;9.70;5.05;;;16.40;99.90;;;;;;4861363;28;89563;-46
2023/07/16 01:48:33;;;;;;;7.47;4.32;;;16.50;99.90;;;;;;4860387;28;90203;-37
2023/07/16 01:50:59;;;;;;;7.90;5.57;;;16.40;99.90;;;;;;4860408;28;89192;-40
2023/07/16 01:53:25;;;;;;;7.40;4.10;;;16.50;99.90;;;;;;4860781;28;89145;-40
2023/07/16 01:55:51;;;;;;;11.07;4.40;;;16.40;99.90;;;;;;4859701;28;89375;-35
2023/07/16 01:58:16;;;;;;;6.85;3.63;;;16.50;99.90;;;;;;4860737;28;89843;-36
2023/07/16 02:00:42;;;;;;;9.07;4.90;;;16.50;99.90;;;;;;4862048;28;89910;-43
2023/07/16 02:03:08;;;;;;;6.50;4.38;;;16.50;99.90;;;;;;4861899;28;90095;-34
2023/07/16 02:05:33;;;;;;;7.95;4.00;;;16.50;99.90;;;;;;4859442;28;90266;-33
2023/07/16 02:07:59;;;;;;;12.75;5.18;;;16.60;99.90;;;;;;4862078;28;90491;-40
2023/07/16 02:10:25;;;;;;;7.95;4.80;;;16.50;99.90;;;;;;4862521;28;89909;-41
2023/07/16 02:12:50;;;;;;;7.03;4.95;;;16.60;99.90;;;;;;4864477;28;88772;-39
2023/07/16 02:15:17;;;;;;;7.57;3.97;;;16.50;99.90;;;;;;4863832;28;89722;-40
2023/07/16 02:17:43;;;;;;;7.30;4.82;;;16.60;99.90;;;;;;4865025;28;90148;-33
2023/07/16 02:20:12;;;;;;;6.45;4.38;;;16.60;99.90;;;;;;4863111;28;89595;-34
2023/07/16 02:22:38;;;;;;;7.35;4.50;;;16.50;99.90;;;;;;4864980;28;89581;-39
2023/07/16 02:25:04;;;;;;;5.55;3.83;;;16.50;99.90;;;;;;4862141;28;88919;-39
2023/07/16 02:27:30;;;;;;;6.30;4.53;;;16.50;99.90;;;;;;4864029;28;92578;-42
2023/07/16 02:29:56;;;;;;;7.82;4.93;;;16.50;99.90;;;;;;4863552;28;90906;-35
2023/07/16 02:32:22;;;;;;;6.15;4.43;;;16.40;99.90;;;;;;4864440;28;90487;-32
2023/07/16 02:34:48;;;;;;;9.13;4.60;;;16.40;99.90;;;;;;4864527;28;88863;-38
2023/07/16 02:37:13;;;;;;;6.55;4.03;;;16.40;99.90;;;;;;4864589;28;91726;-33
2023/07/16 02:39:41;;;;;;;5.90;4.47;;;16.40;99.90;;;;;;4864211;28;89552;-32
2023/07/16 02:42:07;;;;;;;6.32;4.82;;;16.40;99.90;;;;;;4856795;28;89717;-39
2023/07/16 02:44:32;;;;;;;5.60;4.00;;;16.30;99.90;;;;;;4845627;28;88946;-39
2023/07/16 02:46:58;;;;;;;8.20;4.80;;;16.30;99.90;;;;;;4845569;28;90949;-41
2023/07/16 02:49:23;;;;;;;10.07;5.18;;;16.30;99.90;;;;;;4857814;28;89503;-36
2023/07/16 02:51:49;;;;;;;8.88;4.65;;;16.30;99.90;;;;;;4845659;28;89708;-38
2023/07/16 02:54:15;;;;;;;6.82;4.30;;;16.30;99.90;;;;;;4847120;28;90211;-34
2023/07/16 02:56:41;;;;;;;8.63;4.35;;;16.20;99.90;;;;;;4846327;28;89075;-37
2023/07/16 02:59:06;;;;;;;10.48;4.63;;;16.20;99.90;;;;;;4860276;28;89144;-40
2023/07/16 03:01:32;;;;;;;6.35;4.47;;;16.20;99.90;;;;;;4846788;28;89638;-41
2023/07/16 03:03:57;;;;;;;9.07;4.35;;;16.30;99.90;;;;;;4858670;28;89102;-37
2023/07/16 03:06:24;;;;;;;10.40;4.53;;;16.20;99.90;;;;;;4864442;28;91807;-33
2023/07/16 03:08:49;;;;;;;12.73;4.82;;;16.30;99.90;;;;;;4877603;28;89685;-33
2023/07/16 03:11:15;;;;;;;7.75;4.97;;;16.30;99.90;;;;;;4864403;28;89274;-34
2023/07/16 03:13:41;;;;;;;6.68;4.10;;;16.30;99.90;;;;;;4864122;28;89888;-36
2023/07/16 03:16:06;;;;;;;8.40;5.53;;;16.30;99.90;;;;;;4863927;28;90178;-42
2023/07/16 03:18:32;;;;;;;7.40;4.53;;;16.30;99.90;;;;;;4863075;28;89329;-40
2023/07/16 03:20:58;;;;;;;5.97;4.20;;;16.30;99.90;;;;;;4862847;28;89809;-34
2023/07/16 03:23:24;;;;;;;8.45;5.07;;;16.20;99.90;;;;;;4863732;28;88394;-41
2023/07/16 03:25:50;;;;;;;8.73;5.40;;;16.20;99.90;;;;;;4863530;28;90338;-37
2023/07/16 03:28:16;;;;;;;8.88;4.88;;;16.20;99.90;;;;;;4863683;28;88710;-42
2023/07/16 03:30:49;;;;;;;9.23;5.00;;;16.20;99.90;;;;;;4863861;28;89613;-37
2023/07/16 03:33:15;;;;;;;8.32;5.43;;;16.20;99.90;;;;;;4863114;28;90076;-35
2023/07/16 03:35:44;;;;;;;16.00;5.60;;;16.10;99.90;;;;;;4863906;28;90844;-37
2023/07/16 03:38:13;;;;;;;6.63;4.38;;;16.20;99.90;;;;;;4862926;28;90729;-39
2023/07/16 03:40:39;;;;;;;9.95;5.40;;;16.10;99.90;;;;;;4862135;28;89568;-38
2023/07/16 03:43:05;;;;;;;11.07;5.35;;;16.20;99.90;;;;;;4863309;28;89848;-36
2023/07/16 03:45:31;;;;;;;10.55;5.43;;;16.10;99.90;;;;;;4863831;28;90576;-35
2023/07/16 03:47:57;;;;;;;8.65;4.05;;;16.10;99.90;;;;;;4863110;28;91166;-35
2023/07/16 03:50:22;;;;;;;7.72;4.85;;;16.10;99.90;;;;;;4864050;28;89116;-42
2023/07/16 03:52:48;;;;;;;12.30;5.13;;;16.20;99.90;;;;;;4863024;28;89440;-39
2023/07/16 03:55:14;;;;;;;8.23;4.72;;;16.20;99.90;;;;;;4863808;28;90055;-39
2023/07/16 03:57:40;;;;;;;10.02;5.13;;;16.20;99.90;;;;;;4863087;28;90956;-36
2023/07/16 04:00:09;;;;;;;8.52;4.68;;;16.20;99.90;;;;;;4862743;28;89037;-39
2023/07/16 04:02:35;;;;;;;13.48;5.45;;;16.10;99.90;;;;;;4855922;28;88310;-38
2023/07/16 04:05:01;;;;;;;7.35;4.78;;;16.10;99.90;;;;;;4858791;28;91403;-36
2023/07/16 04:07:27;;;;;;;11.43;4.95;;;16.10;99.90;;;;;;4854450;28;91104;-42
2023/07/16 04:09:52;;;;;;;7.32;4.95;;;16.10;99.90;;;;;;4859222;28;91184;-44
2023/07/16 04:12:18;;;;;;;8.63;4.93;;;16.10;99.90;;;;;;4859482;28;90026;-37
2023/07/16 04:14:43;;;;;;;11.52;5.63;;;16.10;99.90;;;;;;4862374;28;89721;-39
2023/07/16 04:17:09;;;;;;;7.53;5.95;;;16.10;99.90;;;;;;4855624;28;89396;-32
2023/07/16 04:19:35;;;;;;;9.45;5.68;;;16.10;99.90;;;;;;4861416;28;89851;-42
2023/07/16 04:22:01;;;;;;;13.07;5.88;;;16.10;99.90;;;;;;4856741;28;89207;-38
2023/07/16 04:24:27;;;;;;;9.95;5.15;;;16.10;99.90;;;;;;4857339;28;90367;-35
2023/07/16 04:26:53;;;;;;;12.07;6.22;;;16.20;99.90;;;;;;4855791;28;88777;-41
2023/07/16 04:29:19;;;;;;;9.52;5.03;;;16.20;99.90;;;;;;4858630;28;89648;-36
2023/07/16 04:31:45;;;;;;;10.02;6.05;;;16.20;99.90;;;;;;4847122;28;90098;-35
2023/07/16 04:34:11;;;;;;;7.68;5.05;;;16.30;99.90;;;;;;4843822;28;90470;-39
2023/07/16 04:36:36;;;;;;;10.45;4.45;;;16.40;99.90;;;;;;4845178;28;89806;-38
2023/07/16 04:39:03;;;;;;;16.77;5.25;;;16.50;99.90;;;;;;4844416;28;90501;-41
2023/07/16 04:41:28;;;;;;;5.53;4.40;;;16.60;99.90;;;;;;4845358;28;90675;-39
2023/07/16 04:43:54;;;;;;;5.65;4.47;;;16.70;99.90;;;;;;4865135;28;89815;-35
2023/07/16 04:46:20;;;;;;;9.90;5.00;;;16.80;99.90;;;;;;4848137;28;90884;-36
2023/07/16 04:48:45;;;;;;;11.50;4.93;;;17.00;99.90;;;;;;4853207;28;89449;-36
2023/07/16 04:51:11;;;;;;;8.23;4.68;;;17.10;99.90;;;;;;4844883;28;89977;-34
2023/07/16 04:53:36;;;;;;;12.13;5.00;;;17.30;99.90;;;;;;4844623;28;90314;-36
2023/07/16 04:56:02;;;;;;;8.80;4.70;;;17.30;99.90;;;;;;4855188;28;90737;-36
2023/07/16 04:58:28;;;;;;;9.43;5.32;;;17.50;99.90;;;;;;4853835;28;90717;-34
2023/07/16 05:00:53;;;;;;;7.40;4.53;;;17.60;99.90;;;;;;4856658;28;90387;-36
2023/07/16 05:03:19;;;;;;;13.52;4.93;;;17.70;99.90;;;;;;4849816;28;90332;-33
2023/07/16 05:05:45;;;;;;;11.25;5.57;;;17.80;99.90;;;;;;4861684;28;89909;-34
2023/07/16 05:08:10;;;;;;;7.80;5.00;;;17.90;99.90;;;;;;4862693;28;89511;-40
2023/07/16 05:10:36;;;;;;;8.63;4.95;;;18.00;99.90;;;;;;4862711;28;91251;-37
2023/07/16 05:13:03;;;;;;;12.23;5.20;;;18.10;99.90;;;;;;4863219;28;89669;-34
2023/07/16 05:15:29;;;;;;;7.78;4.30;;;18.00;99.90;;;;;;4861472;28;89403;-46
2023/07/16 05:17:57;;;;;;;8.02;4.25;;;18.10;99.90;;;;;;4862669;28;89991;-36
2023/07/16 05:20:23;;;;;;;6.63;4.22;;;18.40;99.90;;;;;;4861632;28;90559;-39
2023/07/16 05:22:51;;;;;;;14.77;4.93;;;18.40;99.90;;;;;;4862711;28;90571;-35
2023/07/16 05:25:16;;;;;;;7.57;4.38;;;18.60;99.90;;;;;;4861543;28;90046;-39
2023/07/16 05:27:42;;;;;;;5.70;4.00;;;18.80;99.90;;;;;;4862503;28;90551;-34
2023/07/16 05:30:08;;;;;;;6.45;4.50;;;18.70;99.90;;;;;;4860647;28;89659;-46
2023/07/16 05:32:34;;;;;;;8.32;4.03;;;18.60;99.90;;;;;;4862848;28;92315;-33
2023/07/16 05:34:59;;;;;;;14.40;5.05;;;18.60;99.90;;;;;;4861516;28;89789;-36
2023/07/16 05:37:26;;;;;;;10.75;4.90;;;18.90;99.90;;;;;;4862846;28;90369;-39
2023/07/16 05:39:52;;;;;;;8.38;3.95;;;18.80;99.90;;;;;;4861067;28;89341;-40
2023/07/16 05:42:17;;;;;;;7.50;4.70;;;18.90;99.90;;;;;;4862044;28;89145;-39
2023/07/16 05:44:44;;;;;;;5.78;4.45;;;19.00;99.90;;;;;;4862979;28;91392;-35
2023/07/16 05:47:10;;;;;;;5.93;4.13;;;18.90;99.90;;;;;;4865188;28;89462;-33
2023/07/16 05:49:35;;;;;;;6.32;3.95;;;18.90;99.90;;;;;;4865345;28;89445;-43
2023/07/16 05:52:01;;;;;;;7.30;4.93;;;19.00;99.90;;;;;;4865023;28;90311;-41
2023/07/16 05:54:27;;;;;;;6.95;4.18;;;19.10;99.90;;;;;;4864687;28;90060;-35
2023/07/16 05:56:53;;;;;;;6.00;3.90;;;19.00;99.90;;;;;;4865814;28;89549;-36
2023/07/16 05:59:18;;;;;;;7.15;4.10;;;19.10;99.90;;;;;;4861544;28;90165;-37
2023/07/16 06:01:44;;;;;;;7.68;4.72;;;19.20;99.90;;;;;;4859780;28;90278;-40
2023/07/16 06:04:10;;;;;;;7.53;4.63;;;19.30;99.90;;;;;;4846116;28;89427;-33
2023/07/16 06:06:36;;;;;;;8.57;4.53;;;19.40;99.90;;;;;;4846491;28;90498;-42
2023/07/16 06:09:01;;;;;;;5.57;4.28;;;19.50;99.90;;;;;;4846863;28;90587;-37
2023/07/16 06:11:27;;;;;;;5.43;4.07;;;19.80;99.90;;;;;;4857886;28;90568;-36
2023/07/16 06:13:54;;;;;;;9.68;4.32;;;19.80;99.90;;;;;;4865614;28;90642;-40
2023/07/16 06:16:20;;;;;;;8.88;4.20;;;19.80;99.90;;;;;;4863940;28;89784;-40
2023/07/16 06:18:46;;;;;;;8.63;5.20;;;19.80;99.90;;;;;;4865093;28;90490;-39
2023/07/16 06:21:11;;;;;;;13.15;5.07;;;19.80;99.90;;;;;;4863553;28;90307;-35
2023/07/16 06:23:38;;;;;;;6.85;4.60;;;19.80;99.90;;;;;;4864767;28;90211;-35
2023/07/16 06:26:04;;;;;;;7.18;4.35;;;20.00;99.90;;;;;;4864866;28;89563;-35
2023/07/16 06:28:29;;;;;;;15.30;5.75;;;19.90;99.90;;;;;;4864730;28;88379;-37
2023/07/16 06:30:55;;;;;;;8.40;5.82;;;20.20;99.90;;;;;;4856893;28;90160;-35
2023/07/16 06:33:21;;;;;;;9.20;5.00;;;20.50;99.90;;;;;;4855134;28;91192;-34
2023/07/16 06:35:47;;;;;;;5.53;4.30;;;21.00;99.90;;;;;;4852023;28;89902;-37
2023/07/16 06:38:14;;;;;;;9.50;4.55;;;20.80;99.90;;;;;;4854449;28;88832;-38
2023/07/16 06:40:40;;;;;;;6.22;4.25;;;20.50;99.90;;;;;;4851314;28;90259;-37
2023/07/16 06:43:05;;;;;;;5.53;4.28;;;20.90;99.90;;;;;;4855264;28;90342;-38
2023/07/16 06:45:31;;;;;;;14.32;5.25;;;20.70;99.90;;;;;;4856209;28;91017;-43
2023/07/16 06:47:56;;;;;;;5.63;4.30;;;20.70;99.90;;;;;;4852769;28;89112;-34
2023/07/16 06:50:22;;;;;;;9.93;4.65;;;20.90;99.90;;;;;;4851604;28;90407;-41
2023/07/16 06:52:48;;;;;;;11.48;5.25;;;21.10;99.90;;;;;;4853116;28;90696;-41
2023/07/16 06:55:13;;;;;;;5.47;4.18;;;21.20;99.90;;;;;;4849367;28;90013;-40
2023/07/16 06:57:39;;;;;;;11.02;4.70;;;21.00;99.90;;;;;;4854260;28;89742;-34
2023/07/16 07:00:06;;;;;;;10.10;4.32;;;20.90;99.90;;;;;;4853041;28;91505;-37
2023/07/16 07:02:32;;;;;;;5.33;4.27;;;20.90;99.90;;;;;;4857335;28;90877;-40
2023/07/16 07:04:59;;;;;;;9.13;4.57;;;21.20;99.90;;;;;;4850955;28;89523;-40
2023/07/16 07:07:24;;;;;;;13.90;4.90;;;21.50;99.90;;;;;;4855915;28;87958;-35
2023/07/16 07:09:50;;;;;;;9.32;6.00;;;21.60;99.90;;;;;;4850773;28;89963;-35
2023/07/16 07:12:16;;;;;;;12.20;5.50;;;21.30;99.90;;;;;;4855985;28;90217;-40
2023/07/16 07:14:41;;;;;;;8.27;4.97;;;21.60;99.90;;;;;;4856242;28;90730;-36
2023/07/16 07:17:07;;;;;;;8.32;5.82;;;21.30;99.90;;;;;;4855680;28;88614;-37
2023/07/16 07:19:33;;;;;;;8.25;5.55;;;21.30;99.90;;;;;;4851193;28;90733;-40
2023/07/16 07:21:58;;;;;;;10.32;5.50;;;21.40;99.90;;;;;;4855437;28;90455;-34
2023/07/16 07:24:24;;;;;;;5.70;4.07;;;21.60;99.90;;;;;;4855334;28;90397;-39
2023/07/16 07:26:50;;;;;;;6.65;4.28;;;21.60;99.90;;;;;;4849494;28;89266;-32
2023/07/16 07:29:15;;;;;;;7.70;5.15;;;21.50;99.90;;;;;;4855557;28;90395;-35
2023/07/16 07:31:41;;;;;;;8.75;4.38;;;21.50;99.90;;;;;;4862053;28;88415;-44
2023/07/16 07:34:06;;;;;;;5.65;4.80;;;21.80;99.90;;;;;;4862183;28;89864;-41
2023/07/16 07:36:32;;;;;;;8.23;5.45;;;21.60;99.90;;;;;;4861343;28;89709;-43
2023/07/16 07:38:58;;;;;;;8.15;5.20;;;21.70;99.90;;;;;;4861701;28;90315;-34
2023/07/16 07:41:23;;;;;;;5.30;4.78;;;21.90;99.90;;;;;;4846102;28;89217;-33
2023/07/16 07:43:49;;;;;;;8.95;4.45;;;22.20;99.90;;;;;;4851893;28;90558;-37
2023/07/16 07:46:15;;;;;;;12.75;5.18;;;22.00;99.90;;;;;;4855820;28;89152;-36
2023/07/16 07:48:40;;;;;;;6.65;4.15;;;22.00;99.90;;;;;;4843672;28;90270;-46
2023/07/16 07:51:06;;;;;;;13.20;5.22;;;22.20;99.90;;;;;;4856442;28;89272;-42
2023/07/16 07:53:31;;;;;;;7.00;4.70;;;22.10;99.90;;;;;;4861004;28;89919;-41
2023/07/16 07:55:57;;;;;;;6.57;5.07;;;22.40;99.90;;;;;;4860423;28;88837;-39
2023/07/16 07:58:23;;;;;;;14.82;4.47;;;22.60;99.90;;;;;;4860391;28;90225;-35
2023/07/16 08:00:48;;;;;;;7.60;4.45;;;22.60;99.90;;;;;;4854022;28;90462;-40
2023/07/16 08:03:14;;;;;;;8.35;4.80;;;22.80;99.90;;;;;;4886772;23;89522;-38
2023/07/16 08:05:40;;;;;;;10.10;4.28;;;22.40;99.90;;;;;;4882500;28;88713;-39
2023/07/16 08:08:05;;;;;;;9.85;5.20;;;22.60;99.90;;;;;;4879711;28;91250;-37
2023/07/16 08:10:33;;;;;;;8.90;4.93;;;23.00;99.90;;;;;;4870210;28;89813;-35
2023/07/16 08:12:59;;;;;;;6.65;5.05;;;23.10;99.90;;;;;;4869202;28;89599;-43
2023/07/16 08:15:24;;;;;;;15.68;4.97;;;22.80;99.90;;;;;;4871584;28;89288;-39
2023/07/16 08:17:50;;;;;;;7.35;4.78;;;22.50;99.90;;;;;;4873666;28;90469;-43
2023/07/16 08:20:16;;;;;;;6.90;4.95;;;22.60;99.90;;;;;;4874126;28;90402;-36
2023/07/16 08:22:41;;;;;;;8.18;4.05;;;22.90;99.90;;;;;;4873375;28;89900;-36
2023/07/16 08:25:07;;;;;;;5.85;4.10;;;22.40;99.90;;;;;;4870664;28;89580;-44
2023/07/16 08:27:34;;;;;;;10.10;5.18;;;22.40;99.90;;;;;;4873644;28;91236;-41
2023/07/16 08:30:00;;;;;;;9.15;4.80;;;22.30;99.90;;;;;;4877905;28;91044;-39
2023/07/16 08:32:26;;;;;;;4.65;3.97;;;22.40;99.90;;;;;;4884967;28;89571;-40
2023/07/16 08:34:51;;;;;;;10.00;4.60;;;22.10;99.90;;;;;;4895815;28;88737;-40
2023/07/16 08:37:17;;;;;;;7.15;4.97;;;21.90;99.90;;;;;;4887939;28;90455;-37
2023/07/16 08:39:42;;;;;;;6.10;5.05;;;21.80;99.90;;;;;;4897851;28;89262;-37
2023/07/16 08:42:10;;;;;;;4.55;4.13;;;21.40;99.90;;;;;;4889587;28;89659;-32
2023/07/16 08:44:40;;;;;;;11.48;4.93;;;21.60;99.90;;;;;;4880368;28;89624;-33
2023/07/16 08:47:09;;;;;;;5.70;4.68;;;21.40;99.90;;;;;;4879968;28;90761;-38
2023/07/16 08:49:35;;;;;;;6.30;5.00;;;21.30;99.90;;;;;;4882954;28;89665;-33
2023/07/16 08:52:02;;;;;;;7.05;4.70;;;21.00;99.90;;;;;;4898102;28;89605;-36
2023/07/16 08:54:28;;;;;;;11.70;5.88;;;21.00;99.90;;;;;;4877218;28;89214;-38
2023/07/16 08:56:53;;;;;;;7.15;5.68;;;20.80;99.90;;;;;;4871624;28;89248;-38
2023/07/16 08:59:20;;;;;;;5.55;4.22;;;20.80;99.90;;;;;;4868611;28;90533;-41
2023/07/16 09:01:49;;;;;;;7.75;5.18;;;20.60;99.90;;;;;;4885903;28;91013;-36
2023/07/16 09:04:16;;;;;;;6.50;5.50;;;20.50;99.90;;;;;;4898554;28;90268;-35
2023/07/16 09:06:42;;;;;;;10.18;5.85;;;20.60;99.90;;;;;;4897477;28;90929;-35
2023/07/16 09:09:08;;;;;;;6.95;4.63;;;20.70;99.90;;;;;;4886534;28;90062;-32
2023/07/16 09:11:33;;;;;;;7.00;4.75;;;20.60;99.90;;;;;;4871584;28;89686;-36
2023/07/16 09:14:02;;;;;;;5.80;4.55;;;20.50;99.90;;;;;;4872450;28;89516;-43
2023/07/16 09:16:33;;;;;;;15.00;5.25;;;20.60;99.90;;;;;;4862152;28;89927;-42
2023/07/16 09:19:09;;;;;;;8.32;5.75;;;20.80;99.90;;;;;;4860676;28;89621;-35
2023/07/16 09:21:36;;;;;;;9.13;5.60;;;20.90;99.90;;;;;;4860961;28;89747;-40
2023/07/16 09:24:07;;;;;;;8.13;6.40;;;21.10;99.90;;;;;;4861365;28;88972;-35
2023/07/16 09:26:33;;;;;;;11.07;5.93;;;21.70;99.90;;;;;;4873567;28;90626;-37
2023/07/16 09:28:58;;;;;;;6.45;4.78;;;22.00;99.90;;;;;;4872241;28;91248;-32
2023/07/16 09:31:24;;;;;;;6.15;5.13;;;22.20;99.90;;;;;;4865643;28;89902;-42
2023/07/16 09:33:51;;;;;;;7.15;5.38;;;21.80;99.90;;;;;;4891701;28;88330;-39
2023/07/16 09:36:24;;;;;;;7.97;5.07;;;21.70;99.90;;;;;;4890962;28;91125;-38
2023/07/16 09:38:50;;;;;;;9.43;5.60;;;21.50;99.90;;;;;;4890720;28;90264;-42
2023/07/16 09:41:16;;;;;;;5.90;5.18;;;21.40;99.90;;;;;;4876510;28;90636;-36
2023/07/16 09:43:44;;;;;;;7.93;4.95;;;21.40;99.90;;;;;;4859774;28;89697;-44
2023/07/16 09:46:09;;;;;;;8.85;6.10;;;21.30;99.90;;;;;;4860255;28;90668;-41
2023/07/16 09:48:35;;;;;;;10.43;5.65;;;21.50;99.90;;;;;;4863156;28;90371;-42
2023/07/16 09:51:01;;;;;;;10.65;5.80;;;21.60;99.90;;;;;;4875453;28;90310;-43
2023/07/16 09:53:30;;;;;;;6.78;4.35;;;21.30;99.90;;;;;;4874411;28;89566;-36
2023/07/16 09:55:58;;;;;;;8.38;5.50;;;21.20;99.90;;;;;;4877739;28;92264;-34
2023/07/16 09:58:25;;;;;;;6.13;5.20;;;21.10;99.90;;;;;;4886655;28;90147;-35
2023/07/16 10:00:51;;;;;;;7.23;5.00;;;21.00;99.90;;;;;;4875842;28;90407;-42
2023/07/16 10:03:17;;;;;;;13.43;5.32;;;20.90;99.90;;;;;;4866998;28;89174;-44
2023/07/16 10:05:43;;;;;;;6.43;5.53;;;21.00;99.90;;;;;;4866583;28;90000;-35
2023/07/16 10:08:20;;;;;;;9.95;5.65;;;20.90;99.90;;;;;;4863525;28;89660;-45
2023/07/16 10:10:53;;;;;;;6.35;4.90;;;21.00;99.90;;;;;;4866440;28;89698;-35
2023/07/16 10:13:23;;;;;;;10.52;6.25;;;21.10;99.90;;;;;;4867223;28;90408;-44
2023/07/16 10:15:57;;;;;;;12.85;5.70;;;21.10;99.90;;;;;;4866919;28;90767;-42
2023/07/16 10:18:33;;;;;;;9.52;5.45;;;21.30;99.90;;;;;;4869915;28;89946;-33
2023/07/16 10:21:09;;;;;;;14.25;6.18;;;21.40;99.90;;;;;;4862863;28;88515;-35
2023/07/16 10:23:42;;;;;;;7.30;5.57;;;21.20;99.90;;;;;;4875613;28;90520;-44
2023/07/16 10:26:10;;;;;;;8.98;5.18;;;21.20;99.90;;;;;;4868824;28;89852;-33
2023/07/16 10:28:37;;;;;;;;;;;21.10;99.90;;;;;;4871416;28;90239;-34
2023/07/16 10:31:02;;;;;;;9.77;6.05;;;20.90;99.90;;;;;;4881596;28;89515;-36
2023/07/16 10:33:28;;;;;;;12.55;6.03;;;21.00;99.90;;;;;;4884444;28;88639;-36
2023/07/16 10:35:58;;;;;;;6.35;5.43;;;21.10;99.90;;;;;;4888491;28;89993;-33
2023/07/16 10:38:23;;;;;;;10.93;6.45;;;21.10;99.90;;;;;;4883952;28;90390;-35
2023/07/16 10:40:49;;;;;;;8.27;6.07;;;21.10;99.90;;;;;;4889420;28;90529;-34
2023/07/16 10:43:15;;;;;;;8.73;6.13;;;20.90;99.90;;;;;;4880136;28;88773;-33
2023/07/16 10:45:41;;;;;;;9.10;6.28;;;20.80;99.90;;;;;;4879618;28;90766;-40
2023/07/16 10:48:07;;;;;;;6.97;6.28;;;20.90;99.90;;;;;;4892288;28;89091;-40
2023/07/16 10:50:34;;;;;;;9.82;5.63;;;20.80;99.90;;;;;;4891375;28;89444;-37
2023/07/16 10:53:00;;;;;;;9.20;6.22;;;20.60;99.90;;;;;;4881777;28;88798;-41
2023/07/16 10:55:28;;;;;;;7.60;5.85;;;20.50;99.90;;;;;;4881148;28;90620;-35
2023/07/16 10:57:55;;;;;;;9.82;6.45;;;20.50;99.90;;;;;;4896979;28;90327;-34
2023/07/16 11:00:21;;;;;;;9.07;6.22;;;20.50;99.90;;;;;;4899467;28;89550;-34
2023/07/16 11:02:49;;;;;;;5.82;4.97;;;20.40;99.90;;;;;;4900211;28;89993;-38
2023/07/16 11:05:16;;;;;;;8.00;4.70;;;20.50;99.90;;;;;;4884266;28;90224;-32
2023/07/16 11:07:51;;;;;;;7.05;6.25;;;20.50;99.90;;;;;;4890029;28;90063;-45
2023/07/16 11:10:17;;;;;;;10.55;5.40;;;20.50;99.90;;;;;;4871691;28;89650;-32
2023/07/16 11:12:43;;;;;;;10.43;4.93;;;20.50;99.90;;;;;;4870689;28;89931;-34
2023/07/16 11:15:09;;;;;;;7.43;4.93;;;20.50;99.90;;;;;;4878516;28;90792;-41
2023/07/16 11:17:38;;;;;;;9.20;5.45;;;20.50;99.90;;;;;;4870367;28;90898;-35
2023/07/16 11:20:07;;;;;;;8.25;5.18;;;20.50;99.90;;;;;;4862867;28;89282;-35
2023/07/16 11:22:36;;;;;;;9.88;5.03;;;20.50;99.90;;;;;;4862129;28;90139;-39
2023/07/16 11:25:02;;;;;;;7.78;4.78;;;20.70;99.90;;;;;;4873637;28;90284;-39
2023/07/16 11:27:31;;;;;;;5.80;4.85;;;20.90;99.90;;;;;;4886310;28;90332;-34
2023/07/16 11:29:58;;;;;;;10.20;6.72;;;20.90;99.90;;;;;;4878834;28;89531;-42
2023/07/16 11:32:31;;;;;;;10.38;5.72;;;21.00;99.90;;;;;;4862765;28;88545;-36
2023/07/16 11:34:58;;;;;;;6.90;5.00;;;21.30;99.90;;;;;;4861852;28;91292;-39
2023/07/16 11:37:28;;;;;;;9.73;6.60;;;21.20;99.90;;;;;;4861914;28;89297;-32
2023/07/16 11:39:57;;;;;;;16.95;6.57;;;21.20;99.90;;;;;;4862736;28;89300;-43
2023/07/16 11:42:35;;;;;;;10.02;6.50;;;21.20;99.90;;;;;;4861619;28;89654;-33
2023/07/16 11:45:01;;;;;;;11.05;6.43;;;21.40;99.90;;;;;;4865655;28;89863;-39
2023/07/16 11:47:27;;;;;;;7.93;5.22;;;21.50;99.90;;;;;;4870901;28;89385;-37
2023/07/16 11:49:53;;;;;;;11.30;6.95;;;21.50;99.90;;;;;;4869473;28;89600;-38
2023/07/16 11:52:25;;;;;;;12.15;6.43;;;21.30;99.90;;;;;;4876012;28;90662;-34
2023/07/16 11:54:52;;;;;;;9.23;7.20;;;21.20;99.90;;;;;;4880446;28;91814;-34
2023/07/16 11:57:17;;;;;;;7.38;5.50;;;20.90;99.90;;;;;;4871456;28;90577;-40
2023/07/16 11:59:43;;;;;;;10.20;5.55;;;20.90;99.90;;;;;;4877682;28;88947;-35
2023/07/16 12:02:09;;;;;;;8.13;5.72;;;20.80;99.90;;;;;;4889222;28;90178;-39
2023/07/16 12:04:34;;;;;;;8.40;5.32;;;20.80;99.90;;;;;;4889224;28;89999;-42
2023/07/16 12:07:00;;;;;;;6.43;4.97;;;20.80;99.90;;;;;;4885795;28;90016;-32
2023/07/16 12:09:26;;;;;;;7.82;5.20;;;20.70;99.90;;;;;;4899632;28;90984;-34
2023/07/16 12:11:51;;;;;;;6.60;4.60;;;20.70;99.90;;;;;;4895496;28;89839;-40
2023/07/16 12:14:17;;;;;;;6.75;5.75;;;20.80;99.90;;;;;;4879486;28;91002;-39
2023/07/16 12:16:43;;;;;;;9.63;6.00;;;20.80;99.90;;;;;;4894737;28;90804;-43
2023/07/16 12:19:09;;;;;;;9.77;5.97;;;20.90;99.90;;;;;;4887822;28;90905;-39
2023/07/16 12:21:35;;;;;;;5.15;4.30;;;20.80;99.90;;;;;;4895983;28;88530;-35
2023/07/16 12:24:01;;;;;;;8.63;5.40;;;20.80;99.90;;;;;;4878854;28;90183;-40
2023/07/16 12:26:28;;;;;;;7.00;4.47;;;20.80;99.90;;;;;;4862421;28;91061;-36
2023/07/16 12:28:53;;;;;;;8.63;5.35;;;20.80;99.90;;;;;;4871828;28;89136;-45
2023/07/16 12:31:22;;;;;;;8.80;5.47;;;20.90;99.90;;;;;;4877299;28;88433;-33
2023/07/16 12:33:48;;;;;;;8.90;5.60;;;21.00;99.90;;;;;;4882994;28;90702;-35
2023/07/16 12:36:14;;;;;;;8.23;5.28;;;21.00;99.90;;;;;;4877861;28;89885;-33
2023/07/16 12:38:41;;;;;;;6.78;4.72;;;21.00;99.90;;;;;;4881456;28;89427;-40
2023/07/16 12:41:06;;;;;;;6.72;5.28;;;20.90;99.90;;;;;;4876956;28;88539;-38
2023/07/16 12:43:34;;;;;;;7.53;5.22;;;21.10;99.90;;;;;;4890587;28;90632;-35